createdAt,value
2024-02-20T00:02:09.399Z,25.50
2024-02-20T00:04:36.791Z,23.60
2024-02-20T00:07:04.416Z,21.50
2024-02-20T00:09:31.699Z,22.80
2024-02-20T00:11:58.642Z,21.00
2024-02-20T00:14:25.737Z,22.00
2024-02-20T00:16:53.513Z,22.00
2024-02-20T00:19:21.266Z,23.00
2024-02-20T00:21:48.351Z,22.90
2024-02-20T00:24:15.462Z,22.40
2024-02-20T00:26:44.850Z,23.20
2024-02-20T00:29:12.145Z,24.40
2024-02-20T00:31:39.378Z,24.10
2024-02-20T00:34:06.757Z,22.90
2024-02-20T00:36:34.283Z,20.80
2024-02-20T00:39:03.792Z,22.50
2024-02-20T00:41:32.013Z,21.00
2024-02-20T00:43:59.250Z,19.00
2024-02-20T00:46:26.447Z,18.60
2024-02-20T00:48:53.417Z,18.00
2024-02-20T00:51:22.890Z,16.90
2024-02-20T00:53:50.351Z,17.50
2024-02-20T00:56:17.852Z,16.70
2024-02-20T00:58:45.650Z,17.10
2024-02-20T01:01:13.794Z,19.10
2024-02-20T01:03:45.031Z,21.20
2024-02-20T01:06:12.302Z,20.20
2024-02-20T01:08:40.632Z,20.60
2024-02-20T01:11:08.063Z,21.40
2024-02-20T01:13:35.846Z,21.00
2024-02-20T01:16:03.100Z,22.60
2024-02-20T01:18:30.347Z,23.70
2024-02-20T01:20:57.546Z,23.80
2024-02-20T01:23:24.683Z,25.20
2024-02-20T01:25:51.716Z,23.70
2024-02-20T01:28:18.799Z,22.60
2024-02-20T01:30:47.693Z,23.40
2024-02-20T01:33:14.901Z,23.70
2024-02-20T01:35:42.160Z,23.90
2024-02-20T01:38:09.244Z,24.40
2024-02-20T01:40:40.527Z,24.80
2024-02-20T01:43:07.996Z,24.40
2024-02-20T01:45:35.712Z,23.00
2024-02-20T01:48:05.008Z,23.50
2024-02-20T01:50:35.769Z,23.50
2024-02-20T01:53:04.091Z,22.90
2024-02-20T01:55:33.412Z,23.40
2024-02-20T01:58:01.487Z,23.50
2024-02-20T02:00:29.013Z,22.20
2024-02-20T02:02:57.253Z,22.50
2024-02-20T02:05:24.830Z,21.90
2024-02-20T02:07:52.173Z,22.10
2024-02-20T02:10:19.499Z,22.40
2024-02-20T02:12:46.725Z,21.60
2024-02-20T02:15:13.698Z,22.20
2024-02-20T02:17:41.014Z,21.20
2024-02-20T02:20:09.240Z,21.60
2024-02-20T02:22:36.867Z,21.00
2024-02-20T02:25:04.975Z,22.90
2024-02-20T02:27:32.194Z,21.70
2024-02-20T02:29:59.353Z,21.30
2024-02-20T02:32:26.450Z,20.20
2024-02-20T02:34:53.673Z,20.40
2024-02-20T02:37:21.040Z,19.30
2024-02-20T02:39:48.054Z,20.10
2024-02-20T02:42:15.335Z,20.60
2024-02-20T02:44:44.624Z,20.80
2024-02-20T02:47:11.633Z,20.00
2024-02-20T02:49:38.906Z,19.50
2024-02-20T02:52:07.277Z,20.20
2024-02-20T02:54:34.255Z,18.80
2024-02-20T02:57:01.129Z,18.60
2024-02-20T02:59:28.141Z,17.80
2024-02-20T03:01:55.452Z,18.90
2024-02-20T03:04:22.593Z,18.80
2024-02-20T03:06:51.257Z,19.80
2024-02-20T03:09:22.519Z,21.90
2024-02-20T03:11:49.521Z,20.70
2024-02-20T03:14:17.558Z,19.60
2024-02-20T03:16:45.189Z,19.60
2024-02-20T03:19:12.616Z,18.10
2024-02-20T03:21:40.136Z,18.70
2024-02-20T03:24:07.258Z,19.00
2024-02-20T03:26:34.500Z,19.10
2024-02-20T03:29:01.859Z,19.30
2024-02-20T03:31:29.939Z,19.40
2024-02-20T03:33:57.608Z,20.40
2024-02-20T03:36:25.006Z,21.00
2024-02-20T03:38:52.222Z,22.20
2024-02-20T03:41:19.285Z,22.50
2024-02-20T03:43:46.400Z,22.90
2024-02-20T03:46:13.564Z,23.10
2024-02-20T03:48:40.935Z,21.50
2024-02-20T03:51:08.147Z,22.00
2024-02-20T03:53:35.388Z,21.60
2024-02-20T03:56:02.758Z,21.00
2024-02-20T03:58:30.292Z,22.00
2024-02-20T04:00:57.524Z,21.20
2024-02-20T04:03:24.732Z,20.30
2024-02-20T04:05:51.829Z,20.40
2024-02-20T04:08:19.961Z,20.50
2024-02-20T04:10:47.328Z,19.80
2024-02-20T04:13:15.371Z,20.80
2024-02-20T04:15:42.709Z,19.60
2024-02-20T04:18:09.748Z,19.90
2024-02-20T04:20:36.958Z,19.40
2024-02-20T04:23:07.387Z,18.90
2024-02-20T04:25:34.567Z,18.90
2024-02-20T04:28:01.861Z,18.60
2024-02-20T04:30:29.106Z,19.50
2024-02-20T04:32:56.894Z,18.70
2024-02-20T04:35:24.101Z,17.40
2024-02-20T04:37:51.245Z,18.00
2024-02-20T04:40:19.341Z,18.00
2024-02-20T04:42:46.410Z,18.20
2024-02-20T04:45:13.632Z,19.40
2024-02-20T04:47:41.137Z,19.80
2024-02-20T04:50:08.698Z,20.20
2024-02-20T04:52:35.937Z,23.20
2024-02-20T04:55:03.418Z,24.10
2024-02-20T04:57:30.587Z,24.50
2024-02-20T04:59:57.794Z,25.50
2024-02-20T05:02:25.208Z,26.20
2024-02-20T05:04:55.323Z,27.10
2024-02-20T05:07:24.208Z,26.80
2024-02-20T05:09:51.365Z,27.60
2024-02-20T05:12:18.618Z,28.60
2024-02-20T05:14:50.518Z,39.40
2024-02-20T05:17:17.828Z,32.80
2024-02-20T05:19:45.096Z,31.50
2024-02-20T05:22:13.355Z,31.90
2024-02-20T05:24:43.328Z,33.10
2024-02-20T05:27:10.416Z,32.90
2024-02-20T05:29:37.422Z,32.50
2024-02-20T05:32:04.794Z,32.60
2024-02-20T05:34:32.140Z,32.60
2024-02-20T05:36:59.407Z,32.50
2024-02-20T05:39:26.991Z,33.60
2024-02-20T05:41:54.176Z,32.50
2024-02-20T05:44:21.516Z,32.30
2024-02-20T05:46:48.540Z,32.50
2024-02-20T05:49:15.988Z,32.50
2024-02-20T05:51:43.129Z,32.90
2024-02-20T05:54:10.368Z,33.90
2024-02-20T05:56:37.645Z,32.30
2024-02-20T05:59:06.087Z,30.50
2024-02-20T06:01:33.307Z,28.70
2024-02-20T06:04:05.518Z,27.60
2024-02-20T06:06:35.327Z,28.10
2024-02-20T06:09:03.552Z,27.60
2024-02-20T06:11:30.910Z,27.40
2024-02-20T06:13:58.132Z,27.90
2024-02-20T06:16:26.830Z,27.50
2024-02-20T06:18:54.272Z,28.80
2024-02-20T06:21:23.315Z,27.10
2024-02-20T06:23:51.974Z,26.80
2024-02-20T06:26:19.507Z,26.80
2024-02-20T06:28:47.685Z,26.20
2024-02-20T06:31:15.457Z,28.40
2024-02-20T06:33:43.016Z,24.90
2024-02-20T06:36:11.392Z,25.70
2024-02-20T06:38:38.936Z,24.80
2024-02-20T06:41:06.511Z,25.80
2024-02-20T06:43:38.644Z,27.10
2024-02-20T06:46:06.310Z,26.00
2024-02-20T06:48:33.438Z,26.70
2024-02-20T06:51:01.966Z,53.10
2024-02-20T06:53:29.434Z,35.10
2024-02-20T06:55:56.466Z,46.00
2024-02-20T06:58:23.484Z,48.60
2024-02-20T07:00:50.811Z,50.70
2024-02-20T07:03:18.286Z,68.60
2024-02-20T07:05:45.684Z,44.30
2024-02-20T07:08:13.064Z,31.60
2024-02-20T07:10:40.111Z,27.10
2024-02-20T07:13:07.143Z,27.60
2024-02-20T07:15:34.513Z,27.50
2024-02-20T07:18:01.983Z,25.00
2024-02-20T07:20:29.402Z,25.10
2024-02-20T07:22:56.752Z,24.40
2024-02-20T07:25:25.778Z,24.50
2024-02-20T07:27:52.685Z,24.60
2024-02-20T07:30:20.072Z,24.60
2024-02-20T07:32:47.446Z,24.30
2024-02-20T07:35:15.738Z,23.80
2024-02-20T07:37:43.335Z,23.60
2024-02-20T07:40:11.853Z,22.50
2024-02-20T07:42:39.906Z,23.00
2024-02-20T07:45:07.841Z,22.00
2024-02-20T07:47:38.366Z,19.80
2024-02-20T07:50:06.778Z,20.20
2024-02-20T07:52:34.700Z,19.30
2024-02-20T07:55:03.326Z,19.10
2024-02-20T07:57:34.415Z,18.40
2024-02-20T08:00:06.024Z,16.60
2024-02-20T08:02:33.736Z,17.50
2024-02-20T08:05:02.411Z,18.30
2024-02-20T08:07:29.626Z,16.70
2024-02-20T08:09:57.062Z,16.60
2024-02-20T08:12:25.436Z,13.40
2024-02-20T08:14:52.462Z,12.50
2024-02-20T08:17:23.034Z,11.60
2024-02-20T08:19:50.623Z,11.30
2024-02-20T08:22:17.818Z,11.40
2024-02-20T08:24:45.790Z,11.80
2024-02-20T08:27:12.963Z,11.70
2024-02-20T08:29:40.421Z,12.70
2024-02-20T08:32:07.698Z,12.20
2024-02-20T08:34:34.900Z,12.80
2024-02-20T08:37:01.937Z,13.00
2024-02-20T08:39:29.548Z,13.80
2024-02-20T08:41:56.839Z,14.90
2024-02-20T08:44:27.488Z,14.60
2024-02-20T08:46:56.046Z,15.30
2024-02-20T08:49:23.866Z,15.90
2024-02-20T08:51:51.803Z,15.90
2024-02-20T08:54:19.031Z,15.30
2024-02-20T08:56:46.179Z,14.80
2024-02-20T08:59:13.314Z,15.20
2024-02-20T09:01:41.353Z,16.10
2024-02-20T09:04:09.233Z,15.20
2024-02-20T09:06:36.690Z,14.70
2024-02-20T09:09:03.930Z,14.10
2024-02-20T09:11:31.436Z,13.50
2024-02-20T09:13:58.892Z,13.60
2024-02-20T09:16:26.314Z,14.30
2024-02-20T09:18:53.615Z,13.60
2024-02-20T09:21:20.895Z,12.00
2024-02-20T09:23:49.282Z,10.70
2024-02-20T09:26:16.437Z,9.50
2024-02-20T09:28:44.089Z,8.50
2024-02-20T09:31:11.696Z,8.10
2024-02-20T09:33:39.072Z,7.60
2024-02-20T09:36:08.474Z,7.20
2024-02-20T09:38:36.190Z,6.60
2024-02-20T09:41:05.829Z,7.30
2024-02-20T09:43:33.629Z,7.60
2024-02-20T09:46:07.954Z,20.60
2024-02-20T09:48:35.821Z,23.80
2024-02-20T09:51:05.638Z,9.40
2024-02-20T09:53:35.811Z,9.20
2024-02-20T09:56:04.021Z,8.50
2024-02-20T09:58:33.965Z,8.00
2024-02-20T10:01:05.847Z,4.20
2024-02-20T10:03:35.113Z,2.90
2024-02-20T10:06:04.690Z,3.80
2024-02-20T10:08:33.505Z,3.50
2024-02-20T10:11:01.203Z,2.30
2024-02-20T10:13:28.727Z,2.20
2024-02-20T10:16:05.764Z,1.70
2024-02-20T10:18:33.172Z,2.00
2024-02-20T10:21:04.674Z,2.30
2024-02-20T10:23:32.067Z,1.60
2024-02-20T10:26:00.144Z,1.60
2024-02-20T10:28:27.682Z,1.60
2024-02-20T10:30:56.693Z,1.50
2024-02-20T10:33:24.447Z,5.60
2024-02-20T10:36:03.972Z,1.50
2024-02-20T10:38:31.845Z,7.60
2024-02-20T10:41:00.644Z,5.30
2024-02-20T10:43:28.844Z,1.40
2024-02-20T10:45:57.389Z,1.20
2024-02-20T10:48:31.484Z,1.40
2024-02-20T10:51:00.734Z,2.00
2024-02-20T10:53:30.481Z,1.40
2024-02-20T10:56:02.888Z,1.40
2024-02-20T10:58:31.664Z,1.50
2024-02-20T11:00:59.558Z,1.50
2024-02-20T11:03:31.149Z,1.80
2024-02-20T11:06:01.929Z,1.80
2024-02-20T11:08:29.799Z,1.50
2024-02-20T11:10:57.507Z,1.80
2024-02-20T11:13:29.441Z,1.40
2024-02-20T11:15:57.418Z,1.50
2024-02-20T11:18:28.175Z,1.20
2024-02-20T11:21:07.924Z,1.20
2024-02-20T11:23:38.591Z,1.60
2024-02-20T11:26:09.778Z,1.50
2024-02-20T11:28:38.196Z,1.40
2024-02-20T11:31:06.980Z,1.80
2024-02-20T11:33:35.668Z,1.60
2024-02-20T11:36:05.551Z,1.90
2024-02-20T11:38:34.585Z,1.50
2024-02-20T11:41:07.148Z,1.50
2024-02-20T11:43:35.289Z,2.00
2024-02-20T11:46:03.550Z,1.70
2024-02-20T11:48:32.475Z,1.50
2024-02-20T11:51:01.364Z,1.50
2024-02-20T11:53:28.889Z,1.60
2024-02-20T11:55:57.445Z,1.70
2024-02-20T11:58:28.758Z,1.80
2024-02-20T12:01:06.670Z,1.40
2024-02-20T12:03:36.768Z,1.70
2024-02-20T12:06:06.696Z,1.70
2024-02-20T12:08:54.231Z,1.70
2024-02-20T12:11:25.374Z,1.30
2024-02-20T12:13:54.661Z,0.90
2024-02-20T12:16:28.783Z,1.90
2024-02-20T12:19:03.648Z,1.20
2024-02-20T12:21:40.119Z,1.20
2024-02-20T12:24:11.213Z,1.10
2024-02-20T12:26:38.720Z,1.10
2024-02-20T12:29:06.962Z,1.30
2024-02-20T12:31:35.445Z,1.20
2024-02-20T12:34:06.267Z,1.10
2024-02-20T12:36:34.846Z,1.40
2024-02-20T12:39:03.043Z,1.80
2024-02-20T12:41:31.715Z,1.60
2024-02-20T12:43:59.199Z,1.70
2024-02-20T12:46:26.876Z,1.40
2024-02-20T12:48:56.355Z,1.60
2024-02-20T12:51:28.204Z,1.90
2024-02-20T12:53:56.723Z,1.20
2024-02-20T12:56:25.761Z,1.60
2024-02-20T12:58:53.165Z,2.10
2024-02-20T13:01:20.539Z,1.50
2024-02-20T13:03:48.221Z,1.30
2024-02-20T13:06:15.812Z,1.30
2024-02-20T13:08:43.298Z,1.70
2024-02-20T13:11:11.327Z,1.30
2024-02-20T13:13:38.800Z,1.70
2024-02-20T13:16:06.948Z,2.10
2024-02-20T13:18:34.505Z,1.40
2024-02-20T13:21:05.825Z,1.40
2024-02-20T13:23:33.054Z,1.80
2024-02-20T13:26:00.755Z,2.50
2024-02-20T13:28:28.327Z,1.40
2024-02-20T13:30:55.468Z,1.50
2024-02-20T13:33:23.468Z,2.10
2024-02-20T13:35:51.137Z,1.50
2024-02-20T13:38:18.515Z,1.60
2024-02-20T13:40:45.895Z,1.90
2024-02-20T13:43:13.395Z,1.90
2024-02-20T13:45:50.051Z,1.90
2024-02-20T13:48:18.107Z,1.70
2024-02-20T13:50:47.453Z,2.10
2024-02-20T13:53:16.774Z,1.40
2024-02-20T13:55:47.574Z,1.80
2024-02-20T13:58:15.376Z,1.50
2024-02-20T14:00:46.313Z,1.60
2024-02-20T14:03:18.109Z,1.80
2024-02-20T14:05:46.349Z,1.40
2024-02-20T14:08:14.716Z,2.00
2024-02-20T14:10:42.033Z,1.50
2024-02-20T14:13:09.669Z,2.10
2024-02-20T14:15:37.943Z,1.60
2024-02-20T14:18:05.815Z,2.10
2024-02-20T14:20:35.560Z,1.80
2024-02-20T14:23:05.656Z,2.20
2024-02-20T14:25:34.533Z,1.60
2024-02-20T14:28:04.503Z,2.40
2024-02-20T14:30:35.305Z,2.30
2024-02-20T14:33:05.746Z,1.60
2024-02-20T14:35:33.233Z,3.50
2024-02-20T14:38:01.502Z,2.80
2024-02-20T14:40:28.981Z,1.70
2024-02-20T14:42:57.754Z,1.10
2024-02-20T14:45:25.482Z,1.50
2024-02-20T14:47:52.900Z,1.20
2024-02-20T14:50:21.829Z,2.30
2024-02-20T14:52:49.352Z,1.70
2024-02-20T14:55:17.465Z,2.50
2024-02-20T14:57:48.495Z,1.40
2024-02-20T15:00:17.134Z,1.80
2024-02-20T15:02:44.723Z,1.60
2024-02-20T15:05:15.811Z,1.30
2024-02-20T15:07:43.152Z,1.30
2024-02-20T15:10:13.634Z,1.50
2024-02-20T15:12:42.855Z,1.80
2024-02-20T15:15:16.810Z,2.40
2024-02-20T15:17:46.275Z,2.30
2024-02-20T15:20:14.180Z,4.00
2024-02-20T15:22:41.651Z,3.90
2024-02-20T15:25:16.298Z,2.60
2024-02-20T15:27:48.533Z,2.50
2024-02-20T15:30:17.272Z,1.80
2024-02-20T15:32:46.383Z,2.00
2024-02-20T15:35:14.708Z,2.00
2024-02-20T15:37:45.980Z,2.30
2024-02-20T15:40:13.965Z,2.10
2024-02-20T15:42:44.915Z,1.80
2024-02-20T15:45:12.693Z,2.90
2024-02-20T15:47:41.124Z,2.20
2024-02-20T15:50:09.155Z,2.60
2024-02-20T15:52:39.075Z,2.20
2024-02-20T15:55:08.090Z,2.10
2024-02-20T15:57:36.156Z,2.00
2024-02-20T16:00:05.648Z,2.90
2024-02-20T16:02:34.691Z,3.30
2024-02-20T16:05:04.476Z,3.10
2024-02-20T16:07:32.117Z,2.50
2024-02-20T16:09:59.488Z,2.30
2024-02-20T16:12:28.025Z,2.70
2024-02-20T16:15:00.158Z,2.50
2024-02-20T16:17:29.648Z,3.00
2024-02-20T16:19:57.563Z,3.40
2024-02-20T16:22:25.927Z,3.00
2024-02-20T16:24:53.948Z,3.30
2024-02-20T16:27:21.905Z,2.90
2024-02-20T16:29:56.956Z,2.60
2024-02-20T16:34:53.541Z,3.20
2024-02-20T16:37:21.710Z,3.10
2024-02-20T16:39:49.091Z,3.50
2024-02-20T16:42:17.838Z,2.70
2024-02-20T16:44:45.798Z,2.90
2024-02-20T16:47:13.377Z,2.70
2024-02-20T16:49:41.242Z,2.90
2024-02-20T16:52:11.940Z,2.80
2024-02-20T16:54:39.214Z,3.10
2024-02-20T16:57:11.108Z,2.90
2024-02-20T16:59:42.191Z,3.90
2024-02-20T17:02:09.831Z,5.60
2024-02-20T17:04:38.840Z,3.40
2024-02-20T17:07:06.329Z,3.20
2024-02-20T17:09:33.915Z,4.70
2024-02-20T17:12:01.683Z,3.40
2024-02-20T17:14:29.416Z,3.20
2024-02-20T17:16:57.585Z,3.60
2024-02-20T17:19:25.336Z,4.40
2024-02-20T17:21:53.251Z,3.20
2024-02-20T17:24:20.631Z,17.90
2024-02-20T17:26:50.669Z,13.40
2024-02-20T17:29:19.389Z,15.80
2024-02-20T17:31:46.763Z,5.20
2024-02-20T17:34:14.216Z,8.00
2024-02-20T17:36:41.990Z,18.10
2024-02-20T17:39:09.700Z,28.20
2024-02-20T17:41:37.975Z,8.80
2024-02-20T17:44:05.225Z,5.90
2024-02-20T17:46:32.793Z,6.70
2024-02-20T17:49:01.070Z,7.90
2024-02-20T17:51:28.914Z,8.90
2024-02-20T17:53:57.493Z,8.00
2024-02-20T17:56:25.027Z,14.20
2024-02-20T17:58:52.235Z,13.10
2024-02-20T18:01:22.565Z,13.30
2024-02-20T18:03:50.897Z,9.80
2024-02-20T18:06:18.824Z,10.30
2024-02-20T18:08:46.654Z,6.70
2024-02-20T18:11:15.810Z,6.20
2024-02-20T18:13:43.652Z,8.80
2024-02-20T18:16:15.006Z,6.30
2024-02-20T18:18:42.759Z,7.00
2024-02-20T18:21:10.376Z,6.30
2024-02-20T18:23:38.236Z,6.90
2024-02-20T18:26:05.842Z,6.50
2024-02-20T18:28:35.135Z,9.30
2024-02-20T18:31:02.453Z,7.30
2024-02-20T18:33:29.873Z,6.80
2024-02-20T18:35:57.880Z,6.80
2024-02-20T18:38:27.480Z,7.60
2024-02-20T18:40:55.935Z,11.70
2024-02-20T18:43:24.709Z,8.90
2024-02-20T18:45:53.994Z,10.10
2024-02-20T18:48:24.922Z,7.90
2024-02-20T18:50:52.562Z,6.80
2024-02-20T18:53:20.130Z,5.90
2024-02-20T18:55:52.677Z,5.80
2024-02-20T18:58:21.758Z,6.40
2024-02-20T19:00:51.811Z,5.90
2024-02-20T19:03:19.480Z,6.30
2024-02-20T19:05:47.537Z,8.60
2024-02-20T19:08:15.358Z,11.00
2024-02-20T19:10:42.608Z,9.00
2024-02-20T19:13:10.360Z,10.60
2024-02-20T19:15:38.423Z,13.20
2024-02-20T19:18:06.495Z,9.20
2024-02-20T19:20:34.230Z,8.80
2024-02-20T19:23:02.169Z,8.50
2024-02-20T19:25:30.681Z,6.60
2024-02-20T19:27:58.391Z,5.20
2024-02-20T19:30:26.359Z,5.90
2024-02-20T19:32:56.791Z,5.40
2024-02-20T19:35:26.382Z,5.70
2024-02-20T19:37:54.465Z,5.50
2024-02-20T19:40:22.337Z,5.20
2024-02-20T19:42:50.619Z,4.70
2024-02-20T19:45:19.056Z,4.70
2024-02-20T19:47:49.008Z,4.90
2024-02-20T19:50:17.791Z,4.70
2024-02-20T19:52:46.045Z,4.60
2024-02-20T19:55:15.987Z,4.80
2024-02-20T19:57:43.889Z,4.30
2024-02-20T20:00:13.772Z,4.60
2024-02-20T20:02:42.170Z,4.40
2024-02-20T20:05:10.500Z,4.50
2024-02-20T20:07:39.227Z,6.00
2024-02-20T20:10:08.773Z,7.50
2024-02-20T20:12:37.990Z,11.20
2024-02-20T20:15:07.234Z,9.30
2024-02-20T20:17:35.897Z,7.80
2024-02-20T20:20:04.447Z,5.40
2024-02-20T20:22:33.304Z,3.90
2024-02-20T20:25:01.290Z,5.60
2024-02-20T20:27:29.366Z,4.90
2024-02-20T20:29:57.051Z,4.90
2024-02-20T20:32:24.696Z,4.90
2024-02-20T20:34:52.233Z,5.30
2024-02-20T20:37:24.035Z,6.30
2024-02-20T20:39:55.444Z,6.40
2024-02-20T20:42:23.939Z,6.30
2024-02-20T20:44:53.711Z,5.80
2024-02-20T20:47:28.840Z,5.30
2024-02-20T20:49:57.115Z,6.10
2024-02-20T20:52:24.810Z,5.40
2024-02-20T20:54:53.070Z,5.50
2024-02-20T20:57:22.603Z,5.90
2024-02-20T20:59:52.162Z,26.40
2024-02-20T21:02:21.792Z,10.30
2024-02-20T21:04:50.014Z,6.10
2024-02-20T21:07:18.783Z,5.80
2024-02-20T21:10:06.689Z,6.50
2024-02-20T21:12:34.999Z,6.50
2024-02-20T21:15:05.688Z,6.70
2024-02-20T21:17:33.570Z,5.90
2024-02-20T21:20:01.693Z,5.90
2024-02-20T21:22:29.610Z,5.90
2024-02-20T21:24:57.053Z,6.00
2024-02-20T21:27:24.670Z,20.90
2024-02-20T21:29:52.363Z,39.50
2024-02-20T21:32:20.123Z,11.10
2024-02-20T21:34:48.426Z,10.80
2024-02-20T21:37:18.081Z,11.40
2024-02-20T21:39:45.847Z,8.60
2024-02-20T21:42:14.663Z,4.90
2024-02-20T21:44:42.533Z,7.10
2024-02-20T21:47:10.880Z,10.00
2024-02-20T21:49:39.111Z,9.40
2024-02-20T21:52:08.514Z,8.70
2024-02-20T21:54:36.012Z,4.30
2024-02-20T21:57:03.597Z,9.20
2024-02-20T21:59:32.467Z,8.00
2024-02-20T22:02:00.099Z,6.40
2024-02-20T22:04:28.237Z,6.70
2024-02-20T22:06:56.055Z,9.00
2024-02-20T22:09:23.808Z,9.40
2024-02-20T22:11:52.140Z,8.40
2024-02-20T22:14:20.069Z,7.90
2024-02-20T22:16:48.438Z,7.90
2024-02-20T22:19:17.037Z,7.40
2024-02-20T22:21:46.634Z,6.70
2024-02-20T22:24:16.028Z,8.00
2024-02-20T22:26:44.758Z,6.00
2024-02-20T22:29:13.386Z,6.70
2024-02-20T22:31:41.576Z,21.40
2024-02-20T22:34:10.191Z,22.40
2024-02-20T22:36:37.804Z,15.70
2024-02-20T22:39:05.339Z,19.20
2024-02-20T22:41:33.139Z,11.00
2024-02-20T22:44:01.100Z,7.30
2024-02-20T22:46:28.504Z,6.90
2024-02-20T22:48:56.070Z,5.20
2024-02-20T22:51:23.910Z,7.70
2024-02-20T22:53:51.191Z,9.30
2024-02-20T22:56:18.459Z,8.90
2024-02-20T22:58:45.671Z,7.10
2024-02-20T23:01:12.838Z,13.60
2024-02-20T23:03:40.168Z,26.30
2024-02-20T23:06:07.344Z,14.90
2024-02-20T23:08:35.285Z,9.30
2024-02-20T23:11:02.470Z,7.10
2024-02-20T23:13:29.694Z,7.20
2024-02-20T23:15:57.009Z,6.90
2024-02-20T23:18:24.270Z,6.80
2024-02-20T23:20:51.435Z,5.70
2024-02-20T23:23:18.473Z,5.80
2024-02-20T23:25:45.523Z,6.30
2024-02-20T23:28:12.876Z,6.90
2024-02-20T23:30:39.971Z,13.90
2024-02-20T23:33:07.323Z,12.10
2024-02-20T23:35:34.469Z,10.70
2024-02-20T23:38:01.757Z,9.20
2024-02-20T23:40:28.802Z,9.00
2024-02-20T23:42:56.188Z,7.40
2024-02-20T23:45:23.400Z,7.00
2024-02-20T23:47:50.494Z,9.10
2024-02-20T23:50:17.751Z,12.30
2024-02-20T23:52:44.952Z,26.30
2024-02-20T23:55:12.261Z,8.20
2024-02-20T23:57:39.584Z,5.50
